Time;durP1;ratioP1;P1;durP2;ratioP2;P2;SDS_P1;SDS_P2;PMS_P1;PMS_P2;Temp;Humidity;BMP_temperature;BMP_pressure;BME280_temperature;BME280_humidity;BME280_pressure;Samples;Min_cycle;Max_cycle;Signal;HPM_P1;HPM_P2
2023/08/06 00:02:24;;;;;;;39.67;21.77;;;19.70;99.90;;;;;;5069682;28;20235;-88
2023/08/06 00:05:17;;;;;;;40.72;22.17;;;19.70;99.90;;;;;;5076883;28;20215;-87
2023/08/06 00:08:06;;;;;;;39.72;22.27;;;19.60;99.90;;;;;;5084387;28;21015;-87
2023/08/06 00:10:56;;;;;;;40.05;21.90;;;19.60;99.90;;;;;;5084267;28;20299;-87
2023/08/06 00:13:45;;;;;;;43.80;22.50;;;19.60;99.90;;;;;;5079787;28;20228;-86
2023/08/06 00:16:34;;;;;;;40.35;23.00;;;19.60;99.90;;;;;;5073925;28;20234;-87
2023/08/06 00:19:23;;;;;;;40.58;21.17;;;19.60;99.90;;;;;;5064642;28;20302;-86
2023/08/06 00:22:13;;;;;;;34.30;20.83;;;19.70;99.90;;;;;;5062188;28;20235;-87
2023/08/06 00:25:03;;;;;;;37.50;20.80;;;19.70;99.90;;;;;;5085225;28;20305;-87
2023/08/06 00:27:52;;;;;;;36.38;21.52;;;19.70;99.90;;;;;;5079029;28;20223;-88
2023/08/06 00:30:41;;;;;;;34.55;20.70;;;19.80;99.90;;;;;;5087722;28;20227;-87
2023/08/06 00:33:30;;;;;;;34.88;20.92;;;19.80;99.90;;;;;;5080354;28;21062;-90
2023/08/06 00:36:18;;;;;;;31.10;19.10;;;19.90;99.90;;;;;;5085293;28;20310;-88
2023/08/06 00:39:09;;;;;;;30.38;18.88;;;19.90;99.90;;;;;;5060320;28;20738;-87
2023/08/06 00:41:58;;;;;;;29.85;18.70;;;19.80;99.90;;;;;;5067074;28;20231;-86
2023/08/06 00:44:47;;;;;;;25.65;18.33;;;19.80;99.90;;;;;;5061985;28;20232;-88
2023/08/06 00:47:36;;;;;;;22.88;16.63;;;19.80;99.90;;;;;;5076462;28;20232;-87
2023/08/06 00:50:26;;;;;;;25.17;16.48;;;19.90;99.90;;;;;;5061592;28;20813;-87
2023/08/06 00:53:16;;;;;;;26.40;15.85;;;19.80;99.90;;;;;;5066428;28;20647;-87
2023/08/06 00:56:07;;;;;;;23.77;15.73;;;19.80;99.90;;;;;;5069381;28;20235;-87
2023/08/06 00:58:55;;;;;;;19.00;14.48;;;19.70;99.90;;;;;;5059515;28;20571;-86
2023/08/06 01:01:46;;;;;;;19.08;14.27;;;19.50;99.90;;;;;;5101311;28;20408;-86
2023/08/06 01:04:35;;;;;;;18.10;13.88;;;19.50;99.90;;;;;;5071821;28;20226;-85
2023/08/06 01:07:34;;;;;;;17.17;12.93;;;19.50;99.90;;;;;;5080647;28;20538;-87
2023/08/06 01:10:41;;;;;;;17.15;13.60;;;19.40;99.90;;;;;;5060208;28;20235;-88
2023/08/06 01:13:37;;;;;;;17.52;13.80;;;19.40;99.90;;;;;;5072345;28;20219;-87
2023/08/06 01:16:26;;;;;;;18.63;14.40;;;19.40;99.90;;;;;;5067896;28;20232;-87
2023/08/06 01:19:19;;;;;;;16.23;13.20;;;19.40;99.90;;;;;;5076184;28;20386;-86
2023/08/06 01:22:09;;;;;;;17.60;14.38;;;19.40;99.90;;;;;;5076188;28;20227;-86
2023/08/06 01:24:58;;;;;;;16.08;13.52;;;19.40;99.90;;;;;;5085234;28;20238;-87
2023/08/06 01:27:50;;;;;;;19.38;14.68;;;19.40;99.90;;;;;;5063551;28;20316;-86
2023/08/06 01:30:42;;;;;;;20.40;15.15;;;19.30;99.90;;;;;;5073729;28;20228;-84
2023/08/06 01:33:34;;;;;;;21.17;15.20;;;19.40;99.90;;;;;;5075939;28;20242;-86
2023/08/06 01:36:23;;;;;;;17.98;14.90;;;19.20;99.90;;;;;;5078673;28;20300;-86
2023/08/06 01:39:15;;;;;;;16.65;14.90;;;19.30;99.90;;;;;;5055517;28;20794;-87
2023/08/06 01:42:05;;;;;;;22.17;15.75;;;19.30;99.90;;;;;;5074348;28;20243;-85
2023/08/06 01:44:54;;;;;;;16.20;13.98;;;19.30;99.90;;;;;;5087243;28;20239;-84
2023/08/06 01:47:42;;;;;;;17.40;14.68;;;19.30;99.90;;;;;;5070430;28;20235;-85
2023/08/06 01:50:31;;;;;;;18.88;14.82;;;19.30;99.90;;;;;;5066131;28;20382;-84
2023/08/06 01:53:20;;;;;;;17.00;14.07;;;19.30;99.90;;;;;;5068247;28;20247;-86
2023/08/06 01:56:11;;;;;;;17.05;14.02;;;19.20;99.90;;;;;;5072038;28;20320;-85
2023/08/06 01:58:59;;;;;;;19.83;15.20;;;19.20;99.90;;;;;;5077919;28;20247;-86
2023/08/06 02:01:52;;;;;;;17.50;14.77;;;19.20;99.90;;;;;;5081030;28;20227;-86
2023/08/06 02:04:44;;;;;;;18.00;14.07;;;19.20;99.90;;;;;;5084906;28;20211;-86
2023/08/06 02:07:33;;;;;;;16.30;14.20;;;19.20;99.90;;;;;;5074486;28;20215;-86
2023/08/06 02:10:24;;;;;;;18.13;14.60;;;19.30;99.90;;;;;;5074160;28;20223;-87
2023/08/06 02:13:14;;;;;;;17.33;14.63;;;19.20;99.90;;;;;;5081712;28;20215;-86
2023/08/06 02:16:04;;;;;;;16.95;13.80;;;19.20;99.90;;;;;;5058694;28;20350;-86
2023/08/06 02:18:52;;;;;;;17.20;14.27;;;19.30;99.90;;;;;;5089172;28;20226;-87
2023/08/06 02:21:41;;;;;;;18.17;15.27;;;19.20;99.90;;;;;;5082360;28;20289;-86
2023/08/06 02:24:30;;;;;;;16.42;14.45;;;19.20;99.90;;;;;;5077872;28;20223;-85
2023/08/06 02:27:19;;;;;;;17.85;14.23;;;19.30;99.90;;;;;;5080016;28;20216;-83
2023/08/06 02:30:09;;;;;;;18.23;14.38;;;19.20;99.90;;;;;;5071259;28;20610;-84
2023/08/06 02:33:00;;;;;;;18.75;14.18;;;19.30;99.90;;;;;;5064010;28;20212;-85
2023/08/06 02:35:49;;;;;;;17.27;13.85;;;19.30;99.90;;;;;;5080243;28;20219;-86
2023/08/06 02:38:38;;;;;;;20.40;14.77;;;19.30;99.90;;;;;;5061771;28;20252;-85
2023/08/06 02:41:26;;;;;;;21.80;15.07;;;19.30;99.90;;;;;;5079571;28;20227;-87
2023/08/06 02:44:15;;;;;;;18.27;13.70;;;19.30;99.90;;;;;;5102930;28;20224;-86
2023/08/06 02:47:06;;;;;;;20.55;15.75;;;19.40;99.90;;;;;;5076420;28;20383;-85
2023/08/06 02:49:56;;;;;;;23.75;15.30;;;19.40;99.90;;;;;;5097041;28;20219;-84
2023/08/06 02:52:45;;;;;;;19.42;14.88;;;19.40;99.90;;;;;;5085456;28;20305;-86
2023/08/06 02:55:34;;;;;;;18.30;15.13;;;19.40;99.90;;;;;;5082639;28;20234;-87
2023/08/06 02:58:28;;;;;;;20.88;16.13;;;19.40;99.90;;;;;;5068910;28;20231;-87
2023/08/06 03:01:26;;;;;;;23.77;15.45;;;19.40;99.90;;;;;;5079299;28;20219;-85
2023/08/06 03:04:21;;;;;;;19.75;15.65;;;19.40;99.90;;;;;;5070375;28;20263;-86
2023/08/06 03:07:12;;;;;;;22.27;15.93;;;19.40;99.90;;;;;;5066645;28;20376;-86
2023/08/06 03:10:10;;;;;;;21.05;16.83;;;19.40;99.90;;;;;;5062161;28;20224;-87
2023/08/06 03:13:00;;;;;;;22.40;17.23;;;19.40;99.90;;;;;;5082079;28;20228;-86
2023/08/06 03:16:00;;;;;;;22.98;17.30;;;19.50;99.90;;;;;;5060496;28;20219;-86
2023/08/06 03:18:51;;;;;;;22.27;17.05;;;19.40;99.90;;;;;;5069404;28;20230;-86
2023/08/06 03:21:43;;;;;;;25.25;19.88;;;19.40;99.90;;;;;;5059848;28;20627;-85
2023/08/06 03:24:34;;;;;;;25.75;19.35;;;19.40;99.90;;;;;;5077427;28;20579;-84
2023/08/06 03:27:24;;;;;;;24.23;19.10;;;19.40;99.90;;;;;;5057473;28;20242;-86
2023/08/06 03:30:13;;;;;;;25.85;20.05;;;19.40;99.90;;;;;;5064900;28;20729;-86
2023/08/06 03:33:02;;;;;;;24.90;18.50;;;19.50;99.90;;;;;;5069049;28;20313;-85
2023/08/06 03:35:51;;;;;;;28.10;20.10;;;19.50;99.90;;;;;;5073202;28;20219;-87
2023/08/06 03:38:42;;;;;;;27.85;21.48;;;19.50;99.90;;;;;;5072168;28;20639;-87
2023/08/06 03:41:34;;;;;;;31.40;21.83;;;19.50;99.90;;;;;;5079844;28;20230;-86
2023/08/06 03:44:23;;;;;;;28.00;22.98;;;19.60;99.90;;;;;;5073035;28;20223;-87
2023/08/06 03:47:11;;;;;;;30.13;22.08;;;19.50;99.90;;;;;;5087005;28;20253;-86
2023/08/06 03:50:00;;;;;;;30.50;22.38;;;19.50;99.90;;;;;;5086341;28;20641;-86
2023/08/06 03:52:50;;;;;;;26.42;21.92;;;19.60;99.90;;;;;;5048455;28;20235;-85
2023/08/06 03:55:40;;;;;;;27.40;21.45;;;19.60;99.90;;;;;;5067137;28;20806;-86
2023/08/06 03:58:30;;;;;;;29.20;23.20;;;19.60;99.90;;;;;;5052243;28;20316;-87
2023/08/06 04:01:18;;;;;;;28.85;22.05;;;19.70;99.90;;;;;;5076058;28;20220;-87
2023/08/06 04:04:09;;;;;;;30.83;23.85;;;19.70;99.90;;;;;;5069180;28;20228;-86
2023/08/06 04:06:58;;;;;;;31.55;22.85;;;19.70;99.90;;;;;;5069698;28;20274;-86
2023/08/06 04:09:59;;;;;;;27.75;22.08;;;19.60;99.90;;;;;;5063975;28;20294;-87
2023/08/06 04:12:49;;;;;;;28.65;22.92;;;19.70;99.90;;;;;;5058989;28;20235;-87
2023/08/06 04:15:38;;;;;;;28.10;22.35;;;19.80;99.90;;;;;;5077547;28;20247;-86
2023/08/06 04:18:27;;;;;;;31.52;23.98;;;19.80;99.90;;;;;;5070567;28;20235;-86
2023/08/06 04:21:16;;;;;;;32.13;23.23;;;19.70;99.90;;;;;;5052628;28;20639;-87
2023/08/06 04:24:05;;;;;;;28.50;22.67;;;19.80;99.90;;;;;;5080220;28;20733;-86
2023/08/06 04:26:57;;;;;;;28.58;22.92;;;19.80;99.90;;;;;;5082098;28;20597;-84
2023/08/06 04:29:48;;;;;;;30.42;23.95;;;19.80;99.90;;;;;;5067876;28;20303;-85
2023/08/06 04:32:38;;;;;;;27.50;22.67;;;19.80;99.90;;;;;;5064746;28;20302;-86
2023/08/06 04:35:28;;;;;;;28.90;22.42;;;19.90;99.90;;;;;;5082592;28;20230;-86
2023/08/06 04:38:17;;;;;;;26.88;22.05;;;19.90;99.90;;;;;;5067757;28;20215;-85
2023/08/06 04:41:06;;;;;;;27.88;21.45;;;19.90;99.90;;;;;;5078453;28;20220;-83
2023/08/06 04:43:57;;;;;;;26.17;21.15;;;20.00;99.90;;;;;;5051246;28;20223;-86
2023/08/06 04:46:47;;;;;;;26.50;22.77;;;20.00;99.90;;;;;;5069667;28;20227;-84
2023/08/06 04:49:36;;;;;;;28.60;21.98;;;20.10;99.90;;;;;;5079473;28;20235;-85
2023/08/06 04:52:27;;;;;;;23.45;20.52;;;20.10;99.90;;;;;;5071328;28;20322;-86
2023/08/06 04:55:16;;;;;;;26.42;21.55;;;20.10;99.90;;;;;;5067927;28;20226;-87
2023/08/06 04:58:05;;;;;;;27.17;21.20;;;20.10;99.90;;;;;;5081033;28;20219;-86
2023/08/06 05:00:55;;;;;;;23.98;20.95;;;20.20;99.90;;;;;;5075495;28;20629;-86
2023/08/06 05:03:45;;;;;;;24.48;20.23;;;20.30;99.90;;;;;;5077994;28;20219;-87
2023/08/06 05:06:34;;;;;;;23.88;20.60;;;20.30;99.90;;;;;;5077384;28;20236;-85
2023/08/06 05:09:23;;;;;;;23.98;19.85;;;20.40;99.90;;;;;;5070269;28;20955;-85
2023/08/06 05:12:12;;;;;;;21.88;19.15;;;20.50;99.90;;;;;;5066963;28;20219;-86
2023/08/06 05:15:00;;;;;;;24.55;20.60;;;20.50;99.90;;;;;;5068276;28;20719;-86
2023/08/06 05:17:49;;;;;;;22.77;18.85;;;20.50;99.90;;;;;;5070132;28;20219;-87
2023/08/06 05:20:42;;;;;;;20.52;18.40;;;20.50;99.90;;;;;;5056544;28;20230;-84
2023/08/06 05:23:30;;;;;;;20.73;18.13;;;20.70;99.90;;;;;;5057735;28;20327;-85
2023/08/06 05:26:19;;;;;;;20.40;17.08;;;20.90;99.90;;;;;;5067291;28;20224;-86
2023/08/06 05:29:08;;;;;;;19.85;17.40;;;21.00;99.90;;;;;;5082604;28;20234;-87
2023/08/06 05:31:57;;;;;;;18.95;15.07;;;21.10;99.90;;;;;;5085235;28;20234;-85
2023/08/06 05:34:46;;;;;;;18.77;16.50;;;21.20;99.90;;;;;;5084054;28;20254;-84
2023/08/06 05:37:36;;;;;;;17.35;15.55;;;21.30;99.90;;;;;;5093771;28;20761;-86
2023/08/06 05:40:25;;;;;;;18.58;15.50;;;21.40;99.90;;;;;;5061106;28;20222;-85
2023/08/06 05:43:14;;;;;;;17.10;14.77;;;21.50;99.90;;;;;;5074305;28;20274;-85
2023/08/06 05:46:04;;;;;;;17.42;14.32;;;21.70;99.90;;;;;;5071839;28;20228;-85
2023/08/06 05:48:52;;;;;;;18.58;14.38;;;21.70;99.90;;;;;;5077927;28;20412;-87
2023/08/06 05:51:43;;;;;;;16.02;14.27;;;21.80;99.90;;;;;;5087834;28;20219;-88
2023/08/06 05:54:33;;;;;;;15.80;13.90;;;22.00;99.90;;;;;;5078286;28;20235;-86
2023/08/06 05:57:22;;;;;;;23.77;13.55;;;22.10;99.90;;;;;;5068286;28;20368;-88
2023/08/06 06:00:12;;;;;;;17.60;12.80;;;22.30;99.90;;;;;;5084573;28;20219;-87
2023/08/06 06:03:00;;;;;;;17.02;12.45;;;22.50;99.90;;;;;;5069822;28;20299;-87
2023/08/06 06:05:49;;;;;;;13.93;11.82;;;23.00;99.90;;;;;;5069098;28;20264;-88
2023/08/06 06:08:38;;;;;;;13.32;11.70;;;22.90;99.90;;;;;;5082654;28;20317;-88
2023/08/06 06:11:28;;;;;;;13.35;12.05;;;22.80;99.90;;;;;;5077421;28;20663;-87
2023/08/06 06:14:17;;;;;;;11.98;10.77;;;22.70;99.90;;;;;;5075965;28;20593;-87
2023/08/06 06:17:06;;;;;;;14.15;11.98;;;22.60;99.90;;;;;;5063241;28;20536;-88
2023/08/06 06:19:55;;;;;;;18.10;11.88;;;22.70;99.90;;;;;;5088656;28;20279;-86
2023/08/06 06:22:44;;;;;;;15.55;11.95;;;22.80;99.90;;;;;;5064075;28;20229;-88
2023/08/06 06:25:33;;;;;;;13.20;11.32;;;22.90;99.90;;;;;;5061602;28;20228;-87
2023/08/06 06:28:26;;;;;;;12.38;11.10;;;22.90;99.90;;;;;;5068122;28;20258;-89
2023/08/06 06:31:15;;;;;;;13.98;10.55;;;23.10;99.90;;;;;;5075122;28;20499;-86
2023/08/06 06:34:04;;;;;;;12.85;10.27;;;23.30;99.90;;;;;;5089566;28;20224;-87
2023/08/06 06:36:56;;;;;;;12.75;10.35;;;23.60;99.90;;;;;;5094881;28;20294;-85
2023/08/06 06:39:45;;;;;;;12.23;9.57;;;25.10;99.90;;;;;;5081013;28;20424;-87
2023/08/06 06:42:34;;;;;;;15.02;10.13;;;26.00;99.90;;;;;;5092359;28;20242;-86
2023/08/06 06:45:27;;;;;;;16.98;10.27;;;25.30;99.90;;;;;;5075321;28;20307;-88
2023/08/06 06:48:16;;;;;;;17.50;10.23;;;25.10;99.90;;;;;;5075743;28;20223;-89
2023/08/06 06:51:05;;;;;;;10.95;9.85;;;24.80;99.90;;;;;;5074434;28;20236;-87
2023/08/06 06:53:56;;;;;;;13.52;10.20;;;24.50;99.90;;;;;;5075027;28;20216;-87
2023/08/06 06:56:45;;;;;;;14.82;10.18;;;24.40;99.90;;;;;;5070313;28;20539;-89
2023/08/06 06:59:34;;;;;;;12.88;9.65;;;24.30;99.90;;;;;;5053556;28;20223;-87
2023/08/06 07:02:24;;;;;;;17.98;10.10;;;24.40;99.90;;;;;;5069080;28;20639;-88
2023/08/06 07:05:13;;;;;;;12.13;9.77;;;24.40;99.90;;;;;;5078979;28;20237;-86
2023/08/06 07:08:02;;;;;;;13.68;9.68;;;24.40;99.90;;;;;;5092103;28;20880;-85
2023/08/06 07:10:51;;;;;;;10.95;9.93;;;24.50;99.90;;;;;;5083428;28;20231;-86
2023/08/06 07:13:40;;;;;;;17.95;10.50;;;24.60;99.90;;;;;;5085572;28;20286;-88
2023/08/06 07:16:29;;;;;;;21.83;10.05;;;24.70;99.90;;;;;;5081803;28;20513;-87
2023/08/06 07:19:19;;;;;;;16.13;10.55;;;24.70;99.90;;;;;;5089615;28;20230;-88
2023/08/06 07:22:08;;;;;;;16.02;10.40;;;24.70;99.90;;;;;;5073125;28;20226;-86
2023/08/06 07:24:56;;;;;;;12.43;10.10;;;24.90;99.90;;;;;;5081533;28;20319;-84
2023/08/06 07:27:45;;;;;;;12.93;10.23;;;24.80;99.90;;;;;;5082579;28;20223;-86
2023/08/06 07:30:34;;;;;;;15.18;9.80;;;25.40;99.90;;;;;;5086565;28;20231;-86
2023/08/06 07:33:23;;;;;;;13.30;9.68;;;25.30;99.90;;;;;;5062889;28;20223;-88
2023/08/06 07:36:15;;;;;;;16.17;9.90;;;25.60;99.90;;;;;;5080241;28;20212;-87
2023/08/06 07:39:06;;;;;;;12.43;9.50;;;26.00;99.90;;;;;;5079748;28;20645;-87
2023/08/06 07:41:55;;;;;;;16.05;9.35;;;25.90;99.90;;;;;;5069417;28;20228;-87
2023/08/06 07:44:44;;;;;;;16.67;10.02;;;25.90;99.90;;;;;;5091731;28;20249;-88
2023/08/06 07:47:33;;;;;;;13.30;10.23;;;25.90;99.90;;;;;;5057727;28;20381;-86
2023/08/06 07:50:22;;;;;;;17.55;10.73;;;26.10;99.90;;;;;;5088456;28;20250;-88
2023/08/06 07:53:12;;;;;;;11.38;10.05;;;26.80;99.90;;;;;;5090186;28;20560;-87
2023/08/06 07:56:02;;;;;;;11.60;9.32;;;26.90;99.90;;;;;;5087055;28;20239;-86
2023/08/06 07:58:50;;;;;;;13.43;9.70;;;26.70;99.90;;;;;;5079695;28;20235;-87
2023/08/06 08:01:39;;;;;;;14.05;10.48;;;26.70;99.90;;;;;;5087559;28;20229;-89
2023/08/06 08:04:28;;;;;;;12.50;9.93;;;27.00;99.90;;;;;;5079173;28;20304;-84
2023/08/06 08:07:17;;;;;;;15.68;10.00;;;27.30;99.90;;;;;;5062225;28;20224;-89
2023/08/06 08:10:08;;;;;;;11.15;9.27;;;27.80;99.90;;;;;;5054857;28;20383;-85
2023/08/06 08:12:57;;;;;;;13.30;9.05;;;28.40;99.90;;;;;;5046936;28;20350;-85
2023/08/06 08:15:46;;;;;;;14.65;9.18;;;28.90;99.90;;;;;;5058852;28;20216;-85
2023/08/06 08:18:35;;;;;;;15.02;10.00;;;29.00;99.90;;;;;;5069842;28;20238;-85
2023/08/06 08:21:24;;;;;;;12.00;9.50;;;29.00;99.90;;;;;;5049037;28;20228;-86
2023/08/06 08:24:12;;;;;;;13.73;9.38;;;29.50;99.90;;;;;;5040769;28;20366;-85
2023/08/06 08:27:03;;;;;;;13.40;9.55;;;29.70;99.90;;;;;;5051929;28;20232;-73
2023/08/06 08:29:52;;;;;;;14.25;9.35;;;30.10;99.90;;;;;;5066202;28;20762;-83
2023/08/06 08:32:43;;;;;;;14.15;9.25;;;30.20;99.90;;;;;;5063369;28;20228;-85
2023/08/06 08:35:32;;;;;;;10.88;8.75;;;30.40;99.90;;;;;;5060778;28;20234;-82
2023/08/06 08:38:21;;;;;;;13.73;8.93;;;30.50;99.90;;;;;;5052043;28;20219;-84
2023/08/06 08:41:11;;;;;;;16.13;9.45;;;30.50;99.90;;;;;;5062306;28;20220;-83
2023/08/06 08:44:02;;;;;;;15.38;9.20;;;30.50;99.90;;;;;;5074469;28;20228;-84
2023/08/06 08:46:52;;;;;;;13.73;9.30;;;30.40;99.90;;;;;;5066385;28;20461;-84
2023/08/06 08:49:42;;;;;;;10.80;8.70;;;30.00;99.90;;;;;;5062363;28;20225;-85
2023/08/06 08:52:32;;;;;;;11.38;8.63;;;30.20;99.90;;;;;;5059967;28;20220;-84
2023/08/06 08:55:23;;;;;;;9.20;8.30;;;30.80;99.90;;;;;;5066115;28;20637;-86
2023/08/06 08:58:11;;;;;;;12.65;8.48;;;31.50;99.90;;;;;;5051701;28;20800;-86
2023/08/06 09:01:03;;;;;;;10.75;8.10;;;31.20;99.90;;;;;;5060979;28;20315;-86
2023/08/06 09:03:55;;;;;;;8.88;7.90;;;31.00;99.90;;;;;;5057987;28;20640;-86
2023/08/06 09:06:46;;;;;;;13.05;8.07;;;30.30;99.90;;;;;;5069989;28;20733;-86
2023/08/06 09:09:37;;;;;;;11.55;8.02;;;30.20;99.90;;;;;;5068875;28;20319;-87
2023/08/06 09:12:27;;;;;;;11.98;7.80;;;30.40;99.90;;;;;;5080986;28;20254;-86
2023/08/06 09:15:17;;;;;;;8.73;7.93;;;31.10;99.90;;;;;;5054234;28;20689;-85
2023/08/06 09:18:12;;;;;;;9.23;7.53;;;32.00;99.90;;;;;;5074065;28;20333;-85
2023/08/06 09:21:01;;;;;;;9.25;7.38;;;32.00;99.90;;;;;;5076172;28;20211;-86
2023/08/06 09:23:50;;;;;;;13.43;7.70;;;32.60;99.90;;;;;;5073803;28;20218;-86
2023/08/06 09:26:39;;;;;;;16.92;8.48;;;33.30;99.90;;;;;;5067391;28;20726;-87
2023/08/06 09:29:32;;;;;;;12.32;8.02;;;33.30;99.90;;;;;;5076591;28;20222;-87
2023/08/06 09:32:21;;;;;;;16.35;7.97;;;33.00;99.90;;;;;;5077861;28;20228;-87
2023/08/06 09:35:17;;;;;;;11.15;7.72;;;32.20;99.90;;;;;;5072776;28;20389;-88
2023/08/06 09:38:10;;;;;;;18.75;7.50;;;31.60;99.90;;;;;;5067244;28;20227;-88
2023/08/06 09:40:59;;;;;;;12.10;7.70;;;31.10;99.90;;;;;;5067136;28;20233;-88
2023/08/06 09:43:48;;;;;;;9.00;7.03;;;31.60;99.90;;;;;;5066742;28;20227;-88
2023/08/06 09:46:37;;;;;;;10.10;7.65;;;31.90;99.90;;;;;;5078939;28;20905;-87
2023/08/06 09:49:27;;;;;;;9.55;6.82;;;32.20;99.90;;;;;;5069226;28;20705;-86
2023/08/06 09:52:18;;;;;;;12.40;7.22;;;31.80;99.90;;;;;;5074762;28;20226;-87
2023/08/06 09:55:07;;;;;;;18.63;7.10;;;32.60;99.90;;;;;;5080064;28;20267;-86
2023/08/06 09:57:56;;;;;;;11.18;7.07;;;34.10;99.90;;;;;;5062996;28;20331;-86
2023/08/06 10:00:45;;;;;;;10.32;6.85;;;34.80;99.90;;;;;;5082754;28;20219;-87
2023/08/06 10:03:35;;;;;;;12.38;6.68;;;35.10;99.90;;;;;;5077419;28;20227;-86
2023/08/06 10:06:27;;;;;;;9.35;6.70;;;35.70;99.90;;;;;;5068799;28;20305;-87
2023/08/06 10:09:18;;;;;;;11.18;6.82;;;36.20;99.90;;;;;;5061859;28;20223;-86
2023/08/06 10:12:07;;;;;;;7.90;6.13;;;37.50;99.90;;;;;;5071236;28;20786;-86
2023/08/06 10:14:58;;;;;;;8.75;6.45;;;37.70;99.90;;;;;;5067458;28;21022;-86
2023/08/06 10:17:51;;;;;;;8.93;6.60;;;37.60;99.90;;;;;;5087115;28;20268;-86
2023/08/06 10:20:40;;;;;;;7.85;5.88;;;38.00;99.90;;;;;;5070585;28;20227;-86
2023/08/06 10:23:38;;;;;;;9.77;5.78;;;39.10;99.90;;;;;;5095152;28;20275;-87
2023/08/06 10:26:28;;;;;;;10.35;5.93;;;40.30;98.60;;;;;;5074228;28;20376;-88
2023/08/06 10:29:37;;;;;;;9.48;6.15;;;40.00;95.70;;;;;;5075194;28;20308;-86
2023/08/06 10:32:50;;;;;;;11.15;6.10;;;40.00;94.70;;;;;;5082517;28;20243;-84
2023/08/06 10:35:43;;;;;;;8.48;5.90;;;38.30;95.50;;;;;;5069107;28;20234;-84
2023/08/06 10:38:33;;;;;;;8.93;5.40;;;39.30;94.10;;;;;;5082690;28;20274;-86
2023/08/06 10:41:28;;;;;;;7.38;5.90;;;38.20;93.40;;;;;;5069480;28;20364;-88
2023/08/06 10:44:18;;;;;;;6.28;5.55;;;35.30;97.30;;;;;;5077463;28;20226;-88
2023/08/06 10:47:27;;;;;;;9.45;6.18;;;33.60;99.90;;;;;;5080903;28;20210;-87
2023/08/06 10:50:17;;;;;;;9.43;6.20;;;33.00;99.90;;;;;;5073674;28;20368;-86
2023/08/06 10:53:08;;;;;;;8.25;6.00;;;32.70;99.90;;;;;;5094399;28;20450;-86
2023/08/06 10:55:57;;;;;;;8.10;5.88;;;33.90;99.90;;;;;;5072765;28;20999;-86
2023/08/06 10:58:47;;;;;;;8.75;6.55;;;35.90;99.90;;;;;;5081444;28;20260;-86
2023/08/06 11:01:42;;;;;;;9.07;5.78;;;36.70;99.20;;;;;;5085214;28;20312;-87
2023/08/06 11:04:34;;;;;;;8.20;5.72;;;35.70;98.00;;;;;;5062100;28;20326;-87
2023/08/06 11:07:23;;;;;;;5.97;5.13;;;36.80;97.90;;;;;;5076195;28;20231;-87
2023/08/06 11:10:14;;;;;;;6.72;5.65;;;34.90;98.10;;;;;;5056728;28;20215;-87
2023/08/06 11:13:03;;;;;;;6.78;5.28;;;34.30;99.90;;;;;;5069643;28;20236;-85
2023/08/06 11:15:54;;;;;;;10.38;5.60;;;35.90;98.60;;;;;;5058075;28;20638;-86
2023/08/06 11:18:44;;;;;;;8.60;5.55;;;39.20;97.80;;;;;;5059582;28;20223;-86
2023/08/06 11:21:33;;;;;;;6.40;5.18;;;38.30;94.10;;;;;;5049944;28;20227;-87
2023/08/06 11:24:22;;;;;;;6.68;5.80;;;35.30;95.70;;;;;;5074169;28;20468;-87
2023/08/06 11:27:14;;;;;;;8.30;5.43;;;33.80;99.90;;;;;;5040965;28;20257;-88
2023/08/06 11:30:04;;;;;;;7.88;5.18;;;32.90;99.90;;;;;;5068225;28;20215;-88
2023/08/06 11:32:56;;;;;;;6.32;5.38;;;32.30;99.90;;;;;;5065483;28;20219;-87
2023/08/06 11:35:46;;;;;;;8.77;5.72;;;32.00;99.90;;;;;;5045629;28;20275;-87
2023/08/06 11:38:35;;;;;;;6.50;5.72;;;35.40;99.90;;;;;;5055257;28;21149;-88
2023/08/06 11:41:23;;;;;;;7.93;5.13;;;34.00;99.50;;;;;;5062674;28;20223;-87
2023/08/06 11:44:13;;;;;;;7.38;5.63;;;38.10;96.70;;;;;;5053069;28;20514;-87
2023/08/06 11:47:06;;;;;;;6.05;4.90;;;37.10;94.20;;;;;;5058392;28;20319;-88
2023/08/06 11:49:58;;;;;;;6.53;4.90;;;36.50;94.70;;;;;;5058522;28;20231;-87
2023/08/06 11:52:48;;;;;;;8.77;4.90;;;41.80;90.30;;;;;;5048760;28;21127;-88
2023/08/06 11:55:37;;;;;;;13.95;5.60;;;39.30;88.80;;;;;;5056570;28;20277;-90
2023/08/06 11:58:26;;;;;;;6.55;5.47;;;37.10;92.00;;;;;;5069361;28;20423;-89
2023/08/06 12:01:15;;;;;;;5.75;5.07;;;37.70;91.90;;;;;;5061139;28;20517;-87
2023/08/06 12:04:06;;;;;;;6.20;5.60;;;38.30;93.40;;;;;;5073508;28;20257;-88
2023/08/06 12:06:55;;;;;;;5.72;5.13;;;36.50;92.80;;;;;;5076897;28;20324;-88
2023/08/06 12:09:45;;;;;;;7.53;6.07;;;36.50;94.00;;;;;;5051903;28;20332;-87
2023/08/06 12:12:34;;;;;;;10.02;5.80;;;34.40;92.90;;;;;;5051592;28;20232;-87
2023/08/06 12:15:24;;;;;;;8.85;5.47;;;33.40;94.40;;;;;;5075107;28;20368;-88
2023/08/06 12:18:13;;;;;;;8.52;5.70;;;32.70;96.40;;;;;;5066160;28;20216;-87
2023/08/06 12:21:02;;;;;;;8.38;6.20;;;31.70;97.10;;;;;;5052049;28;20769;-80
2023/08/06 12:23:51;;;;;;;6.95;6.20;;;31.50;98.30;;;;;;5067377;28;20228;-88
2023/08/06 12:26:41;;;;;;;10.38;6.72;;;30.90;99.30;;;;;;5074406;28;20381;-87
2023/08/06 12:29:31;;;;;;;11.70;6.90;;;30.80;99.90;;;;;;5046649;28;20227;-86
2023/08/06 12:32:20;;;;;;;13.70;6.72;;;30.50;99.90;;;;;;5061587;28;20216;-87
2023/08/06 12:35:09;;;;;;;7.45;6.55;;;30.30;99.90;;;;;;5053320;28;20224;-86
2023/08/06 12:37:58;;;;;;;9.02;6.93;;;30.10;99.90;;;;;;5058093;28;20281;-86
2023/08/06 12:40:47;;;;;;;7.00;6.30;;;29.80;99.90;;;;;;5060367;28;20233;-88
2023/08/06 12:43:37;;;;;;;10.57;7.68;;;29.70;99.90;;;;;;5060343;28;20273;-86
2023/08/06 12:46:26;;;;;;;7.75;7.05;;;29.40;99.90;;;;;;5046048;28;20231;-87
2023/08/06 12:49:15;;;;;;;10.15;7.10;;;29.30;99.90;;;;;;5052068;28;20627;-86
2023/08/06 12:52:06;;;;;;;11.77;7.47;;;29.30;99.90;;;;;;5060740;28;20243;-86
2023/08/06 12:54:55;;;;;;;7.43;6.72;;;29.20;99.90;;;;;;5056577;28;20239;-86
2023/08/06 12:57:44;;;;;;;12.70;7.03;;;29.10;99.90;;;;;;5054550;28;20286;-88
2023/08/06 13:00:46;;;;;;;9.13;6.93;;;29.20;99.90;;;;;;5046335;28;20683;-89
2023/08/06 13:03:35;;;;;;;10.43;6.50;;;29.20;99.90;;;;;;5059109;28;20252;-91
2023/08/06 13:06:24;;;;;;;8.80;6.03;;;29.20;99.90;;;;;;5049326;28;20718;-89
2023/08/06 13:09:14;;;;;;;8.10;6.35;;;29.10;99.90;;;;;;5050418;28;20222;-89
2023/08/06 13:12:05;;;;;;;8.95;6.60;;;29.10;99.90;;;;;;5068041;28;20215;-88
2023/08/06 13:14:59;;;;;;;10.55;6.72;;;28.70;99.90;;;;;;5049575;28;20219;-88
2023/08/06 13:17:50;;;;;;;8.05;6.47;;;28.50;99.90;;;;;;5059261;28;20579;-89
2023/08/06 13:20:41;;;;;;;9.68;6.90;;;28.30;99.90;;;;;;5040722;28;20290;-88
2023/08/06 13:23:30;;;;;;;9.73;6.68;;;28.30;99.90;;;;;;5057157;28;20227;-89
2023/08/06 13:26:20;;;;;;;6.60;5.90;;;28.30;99.90;;;;;;5065032;28;20224;-85
2023/08/06 13:29:09;;;;;;;8.52;6.40;;;28.30;99.90;;;;;;5067279;28;20246;-88
2023/08/06 13:31:57;;;;;;;7.53;6.18;;;28.40;99.90;;;;;;5071812;28;20222;-88
2023/08/06 13:34:47;;;;;;;7.80;6.43;;;28.30;99.90;;;;;;5069522;28;20215;-89
2023/08/06 13:37:36;;;;;;;7.53;6.15;;;28.30;99.90;;;;;;5071581;28;20236;-90
2023/08/06 13:40:25;;;;;;;6.80;6.20;;;28.40;99.90;;;;;;5073213;28;20278;-86
2023/08/06 13:43:15;;;;;;;9.60;6.53;;;28.40;99.90;;;;;;5077302;28;20280;-91
2023/08/06 13:46:04;;;;;;;8.50;5.80;;;28.40;99.90;;;;;;5069692;28;20224;-88
2023/08/06 13:48:53;;;;;;;6.45;5.47;;;28.60;99.90;;;;;;5068106;28;20216;-89
2023/08/06 13:51:44;;;;;;;6.47;5.88;;;28.80;99.90;;;;;;5056622;28;20228;-90
2023/08/06 13:54:32;;;;;;;8.18;6.30;;;28.60;99.90;;;;;;5052492;28;20301;-89
2023/08/06 13:57:21;;;;;;;6.50;5.90;;;28.40;99.90;;;;;;5068443;28;20228;-87
2023/08/06 14:00:11;;;;;;;7.75;5.80;;;28.40;99.90;;;;;;5082276;28;20219;-87
2023/08/06 14:03:00;;;;;;;7.65;5.68;;;28.60;99.90;;;;;;5074021;28;20232;-86
2023/08/06 14:05:49;;;;;;;7.05;6.13;;;28.50;99.90;;;;;;5084466;28;20226;-87
2023/08/06 14:08:40;;;;;;;7.20;6.05;;;28.40;99.90;;;;;;5081224;28;20236;-88
2023/08/06 14:11:29;;;;;;;9.40;6.05;;;28.40;99.90;;;;;;5082067;28;20214;-88
2023/08/06 14:14:18;;;;;;;6.80;6.10;;;28.40;99.90;;;;;;5063415;28;20330;-89
2023/08/06 14:17:07;;;;;;;6.40;5.80;;;28.50;99.90;;;;;;5069440;28;20223;-91
2023/08/06 14:19:56;;;;;;;6.25;5.43;;;28.50;99.90;;;;;;5054432;28;20237;-88
2023/08/06 14:22:45;;;;;;;7.75;5.60;;;28.40;99.90;;;;;;5040813;28;20234;-89
2023/08/06 14:25:35;;;;;;;5.80;5.30;;;28.40;99.90;;;;;;5068575;28;20564;-87
2023/08/06 14:28:24;;;;;;;5.90;4.97;;;28.30;99.90;;;;;;5048467;28;20228;-87
2023/08/06 14:31:13;;;;;;;9.30;4.80;;;28.30;99.90;;;;;;5071346;28;20226;-88
2023/08/06 14:34:02;;;;;;;9.98;4.93;;;28.40;99.90;;;;;;5058202;28;20239;-74